CheckWX is a tool to help pilots better visualize weather data.  It is not intended as a substitute for an official pre-flight weather briefing.

22:55:40 UTC

KEKX METAR
Addington Field Airport
Elizabethtown, Kentucky, USA
Current

21 mins ago

KEKX 102235Z AUTO 29010KT 10SM SCT041 SCT050 29/19 A2992 RMK AO2 T02870193
Observed
Jul-10 @ 22:35 UTC
Wind
  • 290° at 10 KTS
Visibility
10 SM
Flight Rules
VFR
Cloud Levels
  • Scattered at 4,100' AGL
  • Scattered at 5,000' AGL
Temperature
29°C / 84°F
Dewpoint
19°C / 66°F
Humidity
55%
Altimeter
29.92" Hg
Pressure
1013.22 hPa
Previous

41 mins ago

KEKX 102215Z AUTO 29009G17KT 10SM SCT043 BKN050 29/19 A2992 RMK AO2 T02880191
Observed
Jul-10 @ 22:15 UTC
Wind
  • 290° at 9 KTS
  • Gusting to 17 KTS
Visibility
10 SM
Flight Rules
VFR
Cloud Levels
  • Scattered at 4,300' AGL
  • Broken at 5,000' AGL
Temperature
29°C / 84°F
Dewpoint
19°C / 66°F
Humidity
55%
Altimeter
29.92" Hg
Pressure
1013.22 hPa
Previous

1 hour ago

KEKX 102155Z AUTO 30009G15KT 10SM SCT043 SCT050 29/19 A2992 RMK AO2 T02870193
Observed
Jul-10 @ 21:55 UTC
Wind
  • 300° at 9 KTS
  • Gusting to 15 KTS
Visibility
10 SM
Flight Rules
VFR
Cloud Levels
  • Scattered at 4,300' AGL
  • Scattered at 5,000' AGL
Temperature
29°C / 84°F
Dewpoint
19°C / 66°F
Humidity
55%
Altimeter
29.92" Hg
Pressure
1013.22 hPa